Latest Weather Observations for Campania

IDT60901

Issued at 2:51 pm EST Monday 3 August 2015 (issued every 10 minutes, with the page automatically refreshed every 10 minutes)

About weather observations | Map of Hobart area stations | Latest observations for Hobart area | Other Formats
Station Details ID: 094212 Name: CAMPANIA (KINCORA) Lat: -42.69 Lon: 147.43 Height: 45.0 m
Data from the previous 72 hours. | See also: Recent months at Campania
Date/Time
EST
Tmp

°C
App
Tmp
°C
Dew
Point
°C
Rel
Hum
%
Delta-T

°C
Wind Press
QNH
hPa
Press
MSL
hPa
Rain
since
9 am
mm
Dir
 
Spd
km/h
Gust
km/h
Spd
kts
Gust
kts
03/02:30pm 4.0 -0.9 1.7 85 0.9 WSW 17 37 9 20 - - 2.0
03/02:00pm 4.4 -0.2 1.3 80 1.2 W 15 24 8 13 - - 0.6
03/01:30pm 4.9 -0.5 1.0 76 1.5 W 19 30 10 16 - - 0.0
03/01:00pm 5.6 -0.5 0.6 70 1.9 WNW 22 32 12 17 - - 0.0
03/12:30pm 5.1 -2.5 0.3 71 1.8 W 30 41 16 22 - - 0.0
03/12:00pm 5.4 -0.7 0.4 70 1.9 W 22 37 12 20 - - 0.0
03/11:30am 4.9 -0.9 0.1 71 1.8 W 20 32 11 17 - - 0.0
03/11:00am 3.5 -2.3 0.0 78 1.3 WNW 20 33 11 18 - - 0.0
03/10:30am 3.9 -3.5 -0.9 71 1.8 W 28 37 15 20 - - 0.0
03/10:00am 4.2 -2.2 -1.4 67 2.0 W 22 35 12 19 - - 0.0
03/09:30am 3.8 -3.3 -1.2 70 1.8 WNW 26 46 14 25 - - 0.0
03/09:28am 3.9 -3.6 -1.3 69 1.9 WNW 28 46 15 25 - - 0.0
03/09:00am 3.4 -4.5 -1.2 72 1.7 WNW 30 44 16 24 - - 4.6
03/08:34am 2.8 -5.1 -1.5 73 1.5 WNW 30 48 16 26 - - 4.6
03/08:30am 2.8 -4.4 -1.7 72 1.6 WNW 26 39 14 21 - - 4.6
03/08:00am 2.3 -4.4 -1.3 77 1.3 WNW 24 37 13 20 - - 4.0
03/07:30am 1.9 -4.0 -0.8 82 1.0 NW 20 32 11 17 - - 3.6
03/07:00am 2.4 -2.6 -1.4 76 1.4 W 15 24 8 13 - - 3.2
03/06:30am 1.9 -4.5 -1.5 78 1.2 WNW 22 37 12 20 - - 3.2
03/06:00am 2.0 -4.3 -1.2 79 1.1 WNW 22 33 12 18 - - 3.2
03/05:30am 1.7 -3.7 -1.0 82 1.0 WNW 17 20 9 11 - - 3.2
03/05:00am 1.1 -4.7 -0.2 91 0.5 WNW 20 35 11 19 - - 3.0
03/04:41am 1.6 -6.6 -1.1 82 1.0 WSW 32 44 17 24 - - 2.6
03/04:30am 3.2 -1.8 -1.3 72 1.6 WNW 15 24 8 13 - - 2.4
03/04:00am 2.8 -2.1 -0.8 77 1.3 NW 15 26 8 14 - - 2.4
03/03:30am 2.1 -3.7 -0.3 84 0.9 NW 20 32 11 17 - - 2.4
03/03:00am 4.1 -1.2 -0.7 71 1.8 WNW 17 24 9 13 - - 2.0
03/02:30am 3.8 -1.4 -0.2 75 1.5 NW 17 24 9 13 - - 2.0
03/02:00am 3.8 -1.8 0.0 76 1.4 NW 19 28 10 15 - - 2.0
03/01:30am 4.3 -1.2 0.5 76 1.5 WNW 19 26 10 14 - - 2.0
03/01:00am 4.0 -1.2 0.0 75 1.5 NNW 17 20 9 11 - - 2.0
03/12:30am 3.9 -1.6 0.8 80 1.2 NW 19 30 10 16 - - 2.0
03/12:00am 4.4 -2.1 0.6 76 1.5 NW 24 46 13 25 - - 1.8
 
Date/Time
EST
Tmp

°C
App
Tmp
°C
Dew
Point
°C
Rel
Hum
%
Delta-T

°C
Wind Press
QNH
hPa
Press
MSL
hPa
Rain
since
9 am
mm
Dir
 
Spd
km/h
Gust
km/h
Spd
kts
Gust
kts
02/11:30pm 4.7 -1.0 0.5 74 1.6 NW 20 33 11 18 - - 1.8
02/11:00pm 3.6 -0.3 1.0 83 1.0 NNW 11 20 6 11 - - 1.8
02/10:30pm 3.6 -1.8 1.2 84 0.9 N 19 28 10 15 - - 1.8
02/10:00pm 3.8 -1.8 1.0 82 1.1 N 20 35 11 19 - - 1.2
02/09:30pm 4.1 -4.1 0.6 78 1.3 NNW 33 54 18 29 - - 1.0
02/09:20pm 4.9 -2.4 -0.1 70 1.9 NNW 28 52 15 28 - - 1.0
02/09:00pm 5.2 -1.4 -0.4 67 2.1 NNW 24 39 13 21 - - 1.0
02/08:30pm 4.4 -0.6 -1.2 67 2.1 NNW 15 24 8 13 - - 1.0
02/08:00pm 5.1 -2.0 -1.6 62 2.5 NW 26 44 14 24 - - 1.0
02/07:30pm 5.0 0.0 -1.4 63 2.4 NW 15 26 8 14 - - 1.0
02/07:00pm 3.8 0.0 -1.0 71 1.8 NNW 9 17 5 9 - - 1.0
02/06:30pm 4.0 0.7 -1.2 69 1.9 NNW 6 9 3 5 - - 1.0
02/06:00pm 4.7 -0.2 -0.7 68 2.0 NW 15 24 8 13 - - 1.0
02/05:30pm 5.5 -0.4 -0.5 65 2.3 NNW 20 35 11 19 - - 1.0
02/05:00pm 4.4 0.3 0.0 73 1.7 NNW 11 15 6 8 - - 1.0
02/04:30pm 5.5 -0.2 0.3 69 2.0 NW 20 33 11 18 - - 1.0
02/04:00pm 6.0 -1.3 -0.3 64 2.4 WNW 28 43 15 23 - - 1.0
02/03:30pm 6.5 -0.2 1.4 70 2.0 WNW 26 39 14 21 - - 1.0
02/03:00pm 6.0 0.5 1.7 74 1.7 W 20 33 11 18 - - 1.0
02/02:30pm 5.8 -0.1 1.5 74 1.7 WNW 22 37 12 20 - - 1.0
02/02:05pm 5.6 -1.8 2.1 78 1.4 WNW 30 48 16 26 - - 1.0
02/02:00pm 5.5 -2.3 1.8 77 1.5 W 32 48 17 26 - - 1.0
02/01:30pm 7.0 -0.5 3.3 77 1.6 WNW 32 54 17 29 - - 0.4
02/01:00pm 8.7 -0.1 3.7 71 2.2 WNW 39 59 21 32 - - 0.0
02/12:30pm 12.1 2.4 0.8 46 4.7 NW 41 74 22 40 - - 0.0
02/12:16pm 12.9 4.0 1.0 44 5.0 NW 37 65 20 35 - - 0.0
02/12:08pm 13.0 5.1 1.0 44 5.1 NW 32 48 17 26 - - 0.0
02/12:00pm 13.0 4.1 1.0 44 5.1 NNW 37 54 20 29 - - 0.0
02/11:41am 13.0 5.8 0.7 43 5.2 NNW 28 50 15 27 - - 0.0
02/11:30am 12.4 5.1 2.3 50 4.4 N 30 44 16 24 - - 0.0
02/11:00am 12.7 4.8 2.0 48 4.6 N 33 48 18 26 - - 0.0
02/10:30am 12.1 4.7 1.7 49 4.4 NNW 30 50 16 27 - - 0.0
02/10:25am 11.8 4.8 2.0 51 4.2 NNW 28 50 15 27 - - 0.0
02/10:00am 10.5 3.2 2.4 57 3.5 N 30 41 16 22 - - 0.0
02/09:30am 9.2 1.4 1.9 60 3.0 N 32 46 17 25 - - 0.0
02/09:00am 8.4 0.4 1.8 63 2.7 N 33 44 18 24 - - 0.0
02/08:30am 8.0 2.4 1.0 61 2.8 N 20 30 11 16 - - 0.0
02/08:00am 6.3 -0.5 0.8 68 2.2 N 26 35 14 19 - - 0.0
02/07:30am 5.8 -0.2 1.0 71 1.9 N 22 35 12 19 - - 0.0
02/07:00am 5.7 -0.8 0.5 69 2.0 N 24 32 13 17 - - 0.0
02/06:30am 5.4 -1.5 0.4 70 1.9 N 26 35 14 19 - - 0.0
02/06:00am 5.6 -2.0 0.4 69 2.0 N 30 35 16 19 - - 0.0
02/05:30am 5.9 -1.0 0.0 66 2.3 N 26 37 14 20 - - 0.0
02/05:00am 6.6 0.0 -0.1 62 2.6 N 24 35 13 19 - - 0.0
02/04:30am 6.8 0.2 -0.2 61 2.7 N 24 33 13 18 - - 0.0
02/04:00am 7.2 1.4 -0.3 59 2.9 N 20 26 11 14 - - 0.0
02/03:30am 7.3 1.2 0.1 60 2.8 N 22 33 12 18 - - 0.0
02/03:00am 7.1 0.5 -0.1 60 2.8 NNW 24 32 13 17 - - 0.0
02/02:30am 7.6 0.2 -0.6 56 3.2 NNW 28 41 15 22 - - 0.0
02/02:06am 7.9 0.2 -0.3 56 3.2 NW 30 48 16 26 - - 0.0
02/02:00am 8.2 -0.1 -0.3 55 3.3 NW 33 48 18 26 - - 0.0
02/01:30am 7.8 -0.5 -0.4 56 3.2 NNW 33 46 18 25 - - 0.0
02/01:00am 7.9 0.9 -0.3 56 3.2 NNW 26 39 14 21 - - 0.0
02/12:30am 8.0 0.7 -0.2 56 3.2 NNW 28 46 15 25 - - 0.0
02/12:25am 7.8 0.4 -0.4 56 3.2 NNW 28 46 15 25 - - 0.0
02/12:00am 7.6 0.6 -0.4 57 3.1 NNW 26 43 14 23 - - 0.0
 
Date/Time
EST
Tmp

°C
App
Tmp
°C
Dew
Point
°C
Rel
Hum
%
Delta-T

°C
Wind Press
QNH
hPa
Press
MSL
hPa
Rain
since
9 am
mm
Dir
 
Spd
km/h
Gust
km/h
Spd
kts
Gust
kts
01/11:30pm 7.3 0.3 -0.4 58 3.0 N 26 41 14 22 - - 0.0
01/11:00pm 7.4 -0.3 -0.3 58 3.0 NNW 30 43 16 23 - - 0.0
01/10:30pm 7.3 -0.1 -0.6 57 3.0 NNW 28 39 15 21 - - 0.0
01/10:00pm 7.5 -0.3 -0.7 56 3.2 NNW 30 41 16 22 - - 0.0
01/09:30pm 6.4 0.7 -0.8 60 2.7 N 19 26 10 14 - - 0.0
01/09:00pm 6.3 0.4 -0.7 61 2.7 N 20 30 11 16 - - 0.0
01/08:30pm 6.3 0.4 -0.7 61 2.7 N 20 32 11 17 - - 0.0
01/08:00pm 6.3 0.4 -0.7 61 2.7 N 20 30 11 16 - - 0.0
01/07:30pm 6.0 -0.7 -0.9 61 2.6 N 24 33 13 18 - - 0.0
01/07:00pm 6.2 -0.4 -0.5 62 2.6 N 24 32 13 17 - - 0.0
01/06:30pm 6.2 0.9 -0.7 61 2.6 N 17 26 9 14 - - 0.0
01/06:00pm 6.8 1.9 -0.6 59 2.8 NNW 15 22 8 12 - - 0.0
01/05:30pm 7.1 2.9 -0.6 58 3.0 N 11 17 6 9 - - 0.0
01/05:00pm 7.3 2.5 0.1 60 2.8 NW 15 28 8 15 - - 0.0
01/04:30pm 7.9 1.7 -0.1 57 3.1 WNW 22 37 12 20 - - 0.0
01/04:00pm 8.2 1.5 -0.8 53 3.5 WNW 24 39 13 21 - - 0.0
01/03:30pm 8.7 0.9 -0.6 52 3.6 W 30 52 16 28 - - 0.0
01/03:11pm 9.2 1.7 -1.2 48 4.0 WNW 28 48 15 26 - - 0.0
01/03:00pm 9.3 1.6 -0.3 51 3.8 WNW 30 44 16 24 - - 0.0
01/02:30pm 9.3 2.7 -0.3 51 3.8 WNW 24 35 13 19 - - 0.0
01/02:00pm 7.6 1.7 1.7 66 2.4 WNW 22 35 12 19 - - 0.0
01/01:30pm 8.6 1.0 0.3 56 3.3 WSW 30 50 16 27 - - 0.0
01/01:00pm 9.3 3.2 0.7 55 3.5 NW 22 35 12 19 - - 0.0
01/12:30pm 8.8 1.5 -0.2 53 3.6 WNW 28 46 15 25 - - 0.0
01/12:28pm 8.9 1.6 0.1 54 3.5 WNW 28 46 15 25 - - 0.0
01/12:00pm 8.7 1.7 -0.3 53 3.5 WNW 26 41 14 22 - - 0.0
01/11:30am 8.2 1.0 0.7 59 3.0 NW 28 46 15 25 - - 0.0
01/11:27am 8.1 0.8 0.3 58 3.1 NW 28 46 15 25 - - 0.0
01/11:00am 8.0 2.0 1.2 62 2.8 WNW 22 39 12 21 - - 0.0
01/10:30am 6.3 -0.9 0.8 68 2.2 W 28 54 15 29 - - 0.0
01/10:18am 6.4 -0.8 0.7 67 2.2 W 28 46 15 25 - - 0.0
01/10:13am 6.9 -0.3 0.6 64 2.5 WNW 28 46 15 25 - - 0.0
01/10:00am 7.3 -1.6 0.7 63 2.6 WSW 37 50 20 27 - - 0.0
01/09:30am 7.4 2.0 1.5 66 2.4 WNW 19 26 10 14 - - 0.0
01/09:00am 6.5 2.0 2.2 74 1.8 WNW 15 28 8 15 - - 1.0
01/08:30am 6.0 -1.1 1.3 72 1.9 W 28 61 15 33 - - 1.0
01/08:09am 6.9 -0.1 2.2 72 1.9 WSW 28 54 15 29 - - 0.8
01/08:00am 8.0 2.8 2.7 69 2.2 WNW 19 28 10 15 - - 0.8
01/07:30am 7.6 3.2 2.5 70 2.1 WNW 15 24 8 13 - - 0.8
01/07:00am 7.9 3.1 2.8 70 2.1 WNW 17 30 9 16 - - 0.8
01/06:30am 8.3 3.3 3.8 73 1.9 WNW 19 33 10 18 - - 0.8
01/06:00am 8.6 1.7 4.4 75 1.8 NW 30 50 16 27 - - 0.6
01/05:50am 9.0 2.5 4.6 74 2.0 NNW 28 48 15 26 - - 0.6
01/05:30am 8.5 5.3 4.9 78 1.6 NW 11 24 6 13 - - 0.4
01/05:00am 9.0 2.8 4.4 73 2.0 N 26 37 14 20 - - 0.0
01/04:30am 9.3 2.6 3.7 68 2.4 N 28 37 15 20 - - 0.0
01/04:20am 9.3 2.6 3.5 67 2.5 N 28 46 15 25 - - 0.0
01/04:00am 9.3 1.2 3.5 67 2.5 N 35 46 19 25 - - 0.0
01/03:37am 9.7 1.2 3.0 63 2.9 N 37 56 20 30 - - 0.0
01/03:30am 9.6 1.1 3.1 64 2.8 N 37 50 20 27 - - 0.0
01/03:13am 9.7 2.8 2.8 62 3.0 N 28 46 15 25 - - 0.0
01/03:00am 10.0 3.1 2.4 59 3.2 N 28 41 15 22 - - 0.0
01/02:38am 9.6 2.7 2.7 62 2.9 N 28 48 15 26 - - 0.0
01/02:30am 9.4 2.1 2.5 62 2.9 N 30 43 16 23 - - 0.0
01/02:00am 10.4 2.5 1.2 53 3.8 NNW 32 50 17 27 - - 0.0
01/01:30am 9.6 1.9 2.5 61 3.0 NNW 32 50 17 27 - - 0.0
01/01:26am 9.7 2.1 2.6 61 3.0 NNW 32 50 17 27 - - 0.0
01/01:22am 9.7 2.4 2.6 61 3.0 NNW 30 46 16 25 - - 0.0
01/01:00am 9.1 3.9 2.2 62 2.9 N 19 28 10 15 - - 0.0
01/12:30am 8.5 3.8 3.4 70 2.2 N 17 24 9 13 - - 0.0
01/12:00am 8.8 3.6 3.6 70 2.3 N 20 26 11 14 - - 0.0
 
Date/Time
EST
Tmp

°C
App
Tmp
°C
Dew
Point
°C
Rel
Hum
%
Delta-T

°C
Wind Press
QNH
hPa
Press
MSL
hPa
Rain
since
9 am
mm
Dir
 
Spd
km/h
Gust
km/h
Spd
kts
Gust
kts
31/11:30pm 8.3 2.7 3.4 71 2.1 NNE 22 28 12 15 - - 0.0
31/11:00pm 7.7 2.6 3.0 72 2.0 NNE 19 26 10 14 - - 0.0
31/10:30pm 8.3 3.0 3.0 69 2.3 N 20 28 11 15 - - 0.0
31/10:00pm 7.9 2.2 2.8 70 2.1 N 22 28 12 15 - - 0.0
31/09:30pm 8.3 3.0 2.8 68 2.3 N 20 30 11 16 - - 0.0
31/09:00pm 8.2 2.1 2.9 69 2.2 N 24 33 13 18 - - 0.0
31/08:30pm 7.9 1.8 3.0 71 2.1 N 24 28 13 15 - - 0.0
31/08:00pm 7.8 2.4 2.3 68 2.3 N 20 28 11 15 - - 0.0
31/07:30pm 8.2 1.7 2.7 68 2.3 N 26 35 14 19 - - 0.0
31/07:00pm 8.2 1.7 2.7 68 2.3 N 26 35 14 19 - - 0.0
31/06:30pm 8.4 3.2 2.4 66 2.5 N 19 32 10 17 - - 0.0
31/06:00pm 8.4 3.8 1.6 62 2.8 N 15 20 8 11 - - 0.0
31/05:30pm 8.5 3.6 2.1 64 2.7 N 17 20 9 11 - - 0.0
31/05:00pm 9.7 4.8 2.1 59 3.2 N 17 24 9 13 - - 0.0
31/04:30pm 11.3 6.1 0.4 47 4.5 NNW 17 24 9 13 - - 0.0
31/04:00pm 12.1 6.3 -0.1 43 5.0 NNW 20 28 11 15 - - 0.0
31/03:30pm 12.2 6.7 0.3 44 4.9 NNW 19 26 10 14 - - 0.0
31/03:00pm 11.8 5.6 0.0 44 4.8 N 22 32 12 17 - - 0.0

Latest Capital City Observations: Canberra | Sydney | Melbourne | Brisbane | Adelaide | Perth | Hobart | Darwin

Other Formats:

Comma delimited format used in spreadsheet applications
http://www.bom.gov.au/fwo/IDT60901/IDT60901.95972.axf

JavaScript Object Notation format (JSON) in row-major order
http://www.bom.gov.au/fwo/IDT60901/IDT60901.95972.json